sensor_id;sensor_type;location;lat;lon;timestamp;pressure;altitude;pressure_sealevel;temperature;humidity
28008;BME280;15333;50.010;20.020;2023-04-25T00:01:21;97619.88;;;10.57;100.00
28008;BME280;15333;50.010;20.020;2023-04-25T00:04:22;97619.72;;;10.59;100.00
28008;BME280;15333;50.010;20.020;2023-04-25T00:07:25;97614.53;;;10.57;100.00
28008;BME280;15333;50.010;20.020;2023-04-25T00:10:26;97613.81;;;10.55;100.00
28008;BME280;15333;50.010;20.020;2023-04-25T00:13:27;97620.84;;;10.56;100.00
28008;BME280;15333;50.010;20.020;2023-04-25T00:16:28;97618.47;;;10.53;100.00
28008;BME280;15333;50.010;20.020;2023-04-25T00:19:31;97616.94;;;10.51;100.00
28008;BME280;15333;50.010;20.020;2023-04-25T00:22:33;97611.59;;;10.41;100.00
28008;BME280;15333;50.010;20.020;2023-04-25T00:25:35;97623.00;;;10.34;100.00
28008;BME280;15333;50.010;20.020;2023-04-25T00:28:36;97622.34;;;10.22;100.00
28008;BME280;15333;50.010;20.020;2023-04-25T00:31:37;97623.59;;;10.18;100.00
28008;BME280;15333;50.010;20.020;2023-04-25T00:34:38;97638.31;;;10.03;100.00
28008;BME280;15333;50.010;20.020;2023-04-25T00:37:39;97628.50;;;9.94;100.00
28008;BME280;15333;50.010;20.020;2023-04-25T00:40:40;97629.34;;;9.94;100.00
28008;BME280;15333;50.010;20.020;2023-04-25T00:43:44;97629.59;;;9.81;100.00
28008;BME280;15333;50.010;20.020;2023-04-25T00:46:49;97632.97;;;9.74;100.00
28008;BME280;15333;50.010;20.020;2023-04-25T00:49:50;97635.34;;;9.67;100.00
28008;BME280;15333;50.010;20.020;2023-04-25T00:52:52;97632.41;;;9.70;100.00
28008;BME280;15333;50.010;20.020;2023-04-25T00:55:58;97632.13;;;9.64;100.00
28008;BME280;15333;50.010;20.020;2023-04-25T00:59:02;97635.91;;;9.61;100.00
28008;BME280;15333;50.010;20.020;2023-04-25T01:02:04;97636.88;;;9.60;100.00
28008;BME280;15333;50.010;20.020;2023-04-25T01:05:05;97638.88;;;9.58;100.00
28008;BME280;15333;50.010;20.020;2023-04-25T01:08:06;97638.56;;;9.61;100.00
28008;BME280;15333;50.010;20.020;2023-04-25T01:11:07;97639.13;;;9.55;100.00
28008;BME280;15333;50.010;20.020;2023-04-25T01:14:08;97647.16;;;9.55;100.00
28008;BME280;15333;50.010;20.020;2023-04-25T01:17:10;97650.97;;;9.62;100.00
28008;BME280;15333;50.010;20.020;2023-04-25T01:20:11;97654.06;;;9.58;100.00
28008;BME280;15333;50.010;20.020;2023-04-25T01:23:14;97651.50;;;9.56;100.00
28008;BME280;15333;50.010;20.020;2023-04-25T01:26:15;97642.66;;;9.56;100.00
28008;BME280;15333;50.010;20.020;2023-04-25T01:29:20;97649.25;;;9.52;100.00
28008;BME280;15333;50.010;20.020;2023-04-25T01:32:22;97650.78;;;9.54;100.00
28008;BME280;15333;50.010;20.020;2023-04-25T01:35:24;97651.34;;;9.48;100.00
28008;BME280;15333;50.010;20.020;2023-04-25T01:38:28;97654.75;;;9.50;100.00
28008;BME280;15333;50.010;20.020;2023-04-25T01:41:29;97655.97;;;9.46;100.00
28008;BME280;15333;50.010;20.020;2023-04-25T01:44:30;97659.38;;;9.48;100.00
28008;BME280;15333;50.010;20.020;2023-04-25T01:47:31;97648.25;;;9.43;100.00
28008;BME280;15333;50.010;20.020;2023-04-25T01:50:32;97655.97;;;9.46;100.00
28008;BME280;15333;50.010;20.020;2023-04-25T01:53:33;97658.22;;;9.41;100.00
28008;BME280;15333;50.010;20.020;2023-04-25T01:56:37;97656.53;;;9.40;100.00
28008;BME280;15333;50.010;20.020;2023-04-25T01:59:41;97659.91;;;9.42;100.00
28008;BME280;15333;50.010;20.020;2023-04-25T02:03:11;97670.03;;;9.48;100.00
28008;BME280;15333;50.010;20.020;2023-04-25T02:06:12;97664.41;;;9.41;100.00
28008;BME280;15333;50.010;20.020;2023-04-25T02:09:17;97668.63;;;9.44;100.00
28008;BME280;15333;50.010;20.020;2023-04-25T02:12:27;97668.34;;;9.47;100.00
28008;BME280;15333;50.010;20.020;2023-04-25T02:15:37;97669.03;;;9.39;100.00
28008;BME280;15333;50.010;20.020;2023-04-25T02:18:48;97665.50;;;9.39;100.00
28008;BME280;15333;50.010;20.020;2023-04-25T02:21:53;97672.84;;;9.37;100.00
28008;BME280;15333;50.010;20.020;2023-04-25T02:24:54;97671.41;;;9.33;100.00
28008;BME280;15333;50.010;20.020;2023-04-25T02:27:56;97671.53;;;9.31;100.00
28008;BME280;15333;50.010;20.020;2023-04-25T02:30:57;97669.03;;;9.30;100.00
28008;BME280;15333;50.010;20.020;2023-04-25T02:33:58;97672.38;;;9.32;100.00
28008;BME280;15333;50.010;20.020;2023-04-25T02:37:00;97675.03;;;9.32;100.00
28008;BME280;15333;50.010;20.020;2023-04-25T02:40:01;97664.38;;;9.32;100.00
28008;BME280;15333;50.010;20.020;2023-04-25T02:43:02;97670.00;;;9.29;100.00
28008;BME280;15333;50.010;20.020;2023-04-25T02:46:03;97672.66;;;9.29;100.00
28008;BME280;15333;50.010;20.020;2023-04-25T02:49:04;97662.13;;;9.27;100.00
28008;BME280;15333;50.010;20.020;2023-04-25T02:52:05;97664.91;;;9.26;100.00
28008;BME280;15333;50.010;20.020;2023-04-25T02:55:07;97663.22;;;9.25;100.00
28008;BME280;15333;50.010;20.020;2023-04-25T02:58:09;97661.81;;;9.21;100.00
28008;BME280;15333;50.010;20.020;2023-04-25T03:01:37;97654.78;;;9.20;100.00
28008;BME280;15333;50.010;20.020;2023-04-25T03:04:37;97656.19;;;9.24;100.00
28008;BME280;15333;50.010;20.020;2023-04-25T03:07:38;97659.88;;;9.23;100.00
28008;BME280;15333;50.010;20.020;2023-04-25T03:10:40;97649.84;;;9.15;100.00
28008;BME280;15333;50.010;20.020;2023-04-25T03:13:43;97653.09;;;9.19;100.00
28008;BME280;15333;50.010;20.020;2023-04-25T03:16:45;97654.47;;;9.13;100.00
28008;BME280;15333;50.010;20.020;2023-04-25T03:19:46;97652.38;;;9.17;100.00
28008;BME280;15333;50.010;20.020;2023-04-25T03:22:47;97653.81;;;9.21;100.00
28008;BME280;15333;50.010;20.020;2023-04-25T03:25:48;97663.63;;;9.20;100.00
28008;BME280;15333;50.010;20.020;2023-04-25T03:28:49;97665.19;;;9.23;100.00
28008;BME280;15333;50.010;20.020;2023-04-25T03:31:50;97672.19;;;9.24;100.00
28008;BME280;15333;50.010;20.020;2023-04-25T03:34:51;97667.16;;;9.21;100.00
28008;BME280;15333;50.010;20.020;2023-04-25T03:37:52;97669.41;;;9.25;100.00
28008;BME280;15333;50.010;20.020;2023-04-25T03:41:00;97680.09;;;9.25;100.00
28008;BME280;15333;50.010;20.020;2023-04-25T03:44:19;97680.94;;;9.26;100.00
28008;BME280;15333;50.010;20.020;2023-04-25T03:47:20;97677.69;;;9.22;100.00
28008;BME280;15333;50.010;20.020;2023-04-25T03:50:24;97682.56;;;9.17;100.00
28008;BME280;15333;50.010;20.020;2023-04-25T03:53:25;97691.00;;;9.13;100.00
28008;BME280;15333;50.010;20.020;2023-04-25T03:56:45;97685.91;;;9.10;100.00
28008;BME280;15333;50.010;20.020;2023-04-25T03:59:53;97690.44;;;9.09;100.00
28008;BME280;15333;50.010;20.020;2023-04-25T04:02:54;97695.19;;;9.06;100.00
28008;BME280;15333;50.010;20.020;2023-04-25T04:05:55;97693.47;;;9.04;100.00
28008;BME280;15333;50.010;20.020;2023-04-25T04:08:56;97704.69;;;8.98;100.00
28008;BME280;15333;50.010;20.020;2023-04-25T04:11:58;97710.03;;;8.98;100.00
28008;BME280;15333;50.010;20.020;2023-04-25T04:15:00;97709.84;;;8.90;100.00
28008;BME280;15333;50.010;20.020;2023-04-25T04:18:01;97709.13;;;8.88;100.00
28008;BME280;15333;50.010;20.020;2023-04-25T04:21:03;97719.22;;;8.85;100.00
28008;BME280;15333;50.010;20.020;2023-04-25T04:24:07;97716.69;;;8.83;100.00
28008;BME280;15333;50.010;20.020;2023-04-25T04:27:21;97729.56;;;8.78;100.00
28008;BME280;15333;50.010;20.020;2023-04-25T04:30:36;97731.81;;;8.73;100.00
28008;BME280;15333;50.010;20.020;2023-04-25T04:33:41;97731.81;;;8.73;100.00
28008;BME280;15333;50.010;20.020;2023-04-25T04:36:42;97738.34;;;8.69;100.00
28008;BME280;15333;50.010;20.020;2023-04-25T04:39:43;97742.72;;;8.70;100.00
28008;BME280;15333;50.010;20.020;2023-04-25T04:43:01;97726.97;;;8.67;100.00
28008;BME280;15333;50.010;20.020;2023-04-25T04:46:05;97737.63;;;8.67;100.00
28008;BME280;15333;50.010;20.020;2023-04-25T04:49:30;97741.28;;;8.66;100.00
28008;BME280;15333;50.010;20.020;2023-04-25T04:52:54;97751.47;;;8.61;100.00
28008;BME280;15333;50.010;20.020;2023-04-25T04:56:16;97746.88;;;8.63;100.00
28008;BME280;15333;50.010;20.020;2023-04-25T04:59:30;97746.03;;;8.62;100.00
28008;BME280;15333;50.010;20.020;2023-04-25T05:02:34;97746.88;;;8.63;100.00
28008;BME280;15333;50.010;20.020;2023-04-25T05:05:54;97759.91;;;8.77;100.00
28008;BME280;15333;50.010;20.020;2023-04-25T05:09:27;97740.50;;;8.75;100.00
28008;BME280;15333;50.010;20.020;2023-04-25T05:12:46;97747.28;;;8.79;100.00
28008;BME280;15333;50.010;20.020;2023-04-25T05:16:16;97756.50;;;8.75;100.00
28008;BME280;15333;50.010;20.020;2023-04-25T05:19:30;97748.97;;;8.80;100.00
28008;BME280;15333;50.010;20.020;2023-04-25T05:23:06;97760.63;;;8.79;100.00
28008;BME280;15333;50.010;20.020;2023-04-25T05:26:26;97762.69;;;8.76;100.00
28008;BME280;15333;50.010;20.020;2023-04-25T05:29:49;97759.03;;;8.77;100.00
28008;BME280;15333;50.010;20.020;2023-04-25T05:33:14;97761.31;;;8.81;100.00
28008;BME280;15333;50.010;20.020;2023-04-25T05:36:15;97757.66;;;8.82;100.00
28008;BME280;15333;50.010;20.020;2023-04-25T05:39:16;97762.97;;;8.73;100.00
28008;BME280;15333;50.010;20.020;2023-04-25T05:42:36;97771.09;;;8.71;100.00
28008;BME280;15333;50.010;20.020;2023-04-25T05:45:58;97772.63;;;8.53;100.00
28008;BME280;15333;50.010;20.020;2023-04-25T05:49:20;97768.06;;;8.44;100.00
28008;BME280;15333;50.010;20.020;2023-04-25T05:52:33;97771.69;;;8.43;100.00
28008;BME280;15333;50.010;20.020;2023-04-25T05:55:42;97773.66;;;8.41;100.00
28008;BME280;15333;50.010;20.020;2023-04-25T05:59:01;97793.53;;;8.37;100.00
28008;BME280;15333;50.010;20.020;2023-04-25T06:02:02;97793.81;;;8.22;100.00
28008;BME280;15333;50.010;20.020;2023-04-25T06:05:06;97781.72;;;8.07;100.00
28008;BME280;15333;50.010;20.020;2023-04-25T06:08:08;97800.75;;;8.03;100.00
28008;BME280;15333;50.010;20.020;2023-04-25T06:11:09;97800.88;;;8.01;100.00
28008;BME280;15333;50.010;20.020;2023-04-25T06:14:10;97804.25;;;8.03;100.00
28008;BME280;15333;50.010;20.020;2023-04-25T06:17:16;97806.44;;;7.98;100.00
28008;BME280;15333;50.010;20.020;2023-04-25T06:20:17;97816.13;;;7.99;100.00
28008;BME280;15333;50.010;20.020;2023-04-25T06:23:18;97807.06;;;7.91;100.00
28008;BME280;15333;50.010;20.020;2023-04-25T06:26:25;97814.59;;;7.85;100.00
28008;BME280;15333;50.010;20.020;2023-04-25T06:29:27;97808.19;;;7.88;100.00
28008;BME280;15333;50.010;20.020;2023-04-25T06:32:28;97811.31;;;7.93;100.00
28008;BME280;15333;50.010;20.020;2023-04-25T06:35:33;97818.56;;;7.91;100.00
28008;BME280;15333;50.010;20.020;2023-04-25T06:38:33;97815.63;;;8.05;100.00
28008;BME280;15333;50.010;20.020;2023-04-25T06:41:36;97817.94;;;8.10;100.00
28008;BME280;15333;50.010;20.020;2023-04-25T06:44:41;97822.16;;;8.12;100.00
28008;BME280;15333;50.010;20.020;2023-04-25T06:47:43;97814.16;;;8.12;100.00
28008;BME280;15333;50.010;20.020;2023-04-25T06:50:44;97815.38;;;8.31;100.00
28008;BME280;15333;50.010;20.020;2023-04-25T07:30:41;97815.72;;;8.69;100.00
28008;BME280;15333;50.010;20.020;2023-04-25T07:33:42;97817.22;;;9.03;100.00
28008;BME280;15333;50.010;20.020;2023-04-25T07:36:43;97805.19;;;9.09;100.00
28008;BME280;15333;50.010;20.020;2023-04-25T07:39:45;97804.53;;;9.37;100.00
28008;BME280;15333;50.010;20.020;2023-04-25T07:42:48;97799.94;;;9.49;100.00
28008;BME280;15333;50.010;20.020;2023-04-25T07:45:54;97808.28;;;9.35;100.00
28008;BME280;15333;50.010;20.020;2023-04-25T07:48:55;97808.75;;;9.70;100.00
28008;BME280;15333;50.010;20.020;2023-04-25T07:51:57;97808.25;;;9.96;100.00
28008;BME280;15333;50.010;20.020;2023-04-25T07:54:58;97798.91;;;9.71;100.00
28008;BME280;15333;50.010;20.020;2023-04-25T07:58:07;97796.72;;;9.86;99.36
28008;BME280;15333;50.010;20.020;2023-04-25T08:01:11;97793.19;;;9.85;98.10
28008;BME280;15333;50.010;20.020;2023-04-25T08:04:21;97799.13;;;9.58;99.10
28008;BME280;15333;50.010;20.020;2023-04-25T08:07:28;97792.19;;;9.16;96.34
28008;BME280;15333;50.010;20.020;2023-04-25T08:10:32;97791.84;;;9.30;94.60
28008;BME280;15333;50.010;20.020;2023-04-25T08:13:33;97798.31;;;9.67;96.12
28008;BME280;15333;50.010;20.020;2023-04-25T08:16:34;97800.97;;;9.98;97.39
28008;BME280;15333;50.010;20.020;2023-04-25T08:19:37;97788.47;;;9.58;92.01
28008;BME280;15333;50.010;20.020;2023-04-25T08:22:38;97791.38;;;9.86;93.65
28008;BME280;15333;50.010;20.020;2023-04-25T08:25:55;97794.66;;;9.68;92.93
28008;BME280;15333;50.010;20.020;2023-04-25T08:29:00;97803.75;;;9.26;93.12
28008;BME280;15333;50.010;20.020;2023-04-25T08:32:04;97806.81;;;8.80;94.19
28008;BME280;15333;50.010;20.020;2023-04-25T08:35:08;97810.66;;;8.66;98.51
28008;BME280;15333;50.010;20.020;2023-04-25T08:38:09;97827.66;;;8.54;100.00
28008;BME280;15333;50.010;20.020;2023-04-25T08:41:11;97813.31;;;8.66;100.00
28008;BME280;15333;50.010;20.020;2023-04-25T08:44:13;97813.00;;;8.80;100.00
28008;BME280;15333;50.010;20.020;2023-04-25T08:47:15;97818.50;;;8.88;100.00
28008;BME280;15333;50.010;20.020;2023-04-25T08:50:22;97817.94;;;9.06;100.00
28008;BME280;15333;50.010;20.020;2023-04-25T08:53:26;97818.53;;;9.30;100.00
28008;BME280;15333;50.010;20.020;2023-04-25T08:56:29;97822.03;;;9.51;100.00
28008;BME280;15333;50.010;20.020;2023-04-25T08:59:30;97822.19;;;9.59;100.00
28008;BME280;15333;50.010;20.020;2023-04-25T09:02:32;97817.13;;;9.56;99.70
28008;BME280;15333;50.010;20.020;2023-04-25T09:05:33;97821.03;;;9.31;99.17
28008;BME280;15333;50.010;20.020;2023-04-25T09:08:36;97824.69;;;9.51;100.00
28008;BME280;15333;50.010;20.020;2023-04-25T09:11:37;97825.47;;;9.42;99.99
28008;BME280;15333;50.010;20.020;2023-04-25T09:14:42;97822.09;;;9.40;100.00
28008;BME280;15333;50.010;20.020;2023-04-25T09:17:59;97830.13;;;9.70;100.00
28008;BME280;15333;50.010;20.020;2023-04-25T09:21:08;97828.50;;;9.89;100.00
28008;BME280;15333;50.010;20.020;2023-04-25T09:24:09;97827.44;;;10.01;100.00
28008;BME280;15333;50.010;20.020;2023-04-25T09:27:18;97833.28;;;9.95;100.00
28008;BME280;15333;50.010;20.020;2023-04-25T09:30:29;97834.06;;;9.76;100.00
28008;BME280;15333;50.010;20.020;2023-04-25T09:33:40;97827.66;;;9.27;97.65
28008;BME280;15333;50.010;20.020;2023-04-25T09:36:42;97827.84;;;9.15;96.55
28008;BME280;15333;50.010;20.020;2023-04-25T09:40:05;97838.88;;;8.89;96.48
28008;BME280;15333;50.010;20.020;2023-04-25T09:43:19;97833.56;;;8.89;97.71
28008;BME280;15333;50.010;20.020;2023-04-25T09:46:23;97831.16;;;8.86;99.89
28008;BME280;15333;50.010;20.020;2023-04-25T09:49:28;97833.75;;;8.77;100.00
28008;BME280;15333;50.010;20.020;2023-04-25T09:52:45;97836.84;;;8.82;100.00
28008;BME280;15333;50.010;20.020;2023-04-25T09:56:00;97833.72;;;9.09;100.00
28008;BME280;15333;50.010;20.020;2023-04-25T09:59:02;97824.97;;;9.07;100.00
28008;BME280;15333;50.010;20.020;2023-04-25T10:02:03;97833.88;;;8.96;99.63
28008;BME280;15333;50.010;20.020;2023-04-25T10:05:11;97826.78;;;9.27;100.00
28008;BME280;15333;50.010;20.020;2023-04-25T10:08:14;97828.97;;;9.63;100.00
28008;BME280;15333;50.010;20.020;2023-04-25T10:11:17;97823.06;;;9.69;97.57
28008;BME280;15333;50.010;20.020;2023-04-25T10:14:18;97829.56;;;9.76;95.69
28008;BME280;15333;50.010;20.020;2023-04-25T10:17:20;97828.78;;;9.86;93.73
28008;BME280;15333;50.010;20.020;2023-04-25T10:20:22;97828.06;;;9.53;91.39
28008;BME280;15333;50.010;20.020;2023-04-25T10:23:23;97828.34;;;9.50;92.72
28008;BME280;15333;50.010;20.020;2023-04-25T10:26:25;97821.69;;;9.24;92.21
28008;BME280;15333;50.010;20.020;2023-04-25T10:29:26;97832.44;;;9.33;91.90
28008;BME280;15333;50.010;20.020;2023-04-25T10:32:27;97822.47;;;9.56;90.91
28008;BME280;15333;50.010;20.020;2023-04-25T10:35:29;97815.66;;;9.82;89.36
28008;BME280;15333;50.010;20.020;2023-04-25T10:38:34;97808.84;;;10.09;88.74
28008;BME280;15333;50.010;20.020;2023-04-25T10:41:47;97813.59;;;9.96;84.06
28008;BME280;15333;50.010;20.020;2023-04-25T10:45:01;97816.38;;;10.25;80.67
28008;BME280;15333;50.010;20.020;2023-04-25T10:48:25;97800.41;;;10.63;78.91
28008;BME280;15333;50.010;20.020;2023-04-25T10:51:32;97805.88;;;11.00;80.05
28008;BME280;15333;50.010;20.020;2023-04-25T10:54:34;97802.06;;;10.74;77.14
28008;BME280;15333;50.010;20.020;2023-04-25T10:57:41;97799.09;;;10.96;76.40
28008;BME280;15333;50.010;20.020;2023-04-25T11:00:44;97799.25;;;10.56;76.69
28008;BME280;15333;50.010;20.020;2023-04-25T11:03:47;97801.63;;;10.88;76.95
28008;BME280;15333;50.010;20.020;2023-04-25T11:10:07;97783.34;;;10.54;78.02
28008;BME280;15333;50.010;20.020;2023-04-25T11:13:08;97791.22;;;10.85;78.40
28008;BME280;15333;50.010;20.020;2023-04-25T11:16:09;97785.56;;;11.07;79.20
28008;BME280;15333;50.010;20.020;2023-04-25T11:19:10;97796.16;;;10.99;79.09
28008;BME280;15333;50.010;20.020;2023-04-25T11:22:11;97784.16;;;11.03;77.16
28008;BME280;15333;50.010;20.020;2023-04-25T11:25:15;97787.81;;;11.12;76.63
28008;BME280;15333;50.010;20.020;2023-04-25T11:28:21;97780.94;;;11.56;75.63
28008;BME280;15333;50.010;20.020;2023-04-25T11:31:25;97788.84;;;11.48;75.69
28008;BME280;15333;50.010;20.020;2023-04-25T11:34:30;97785.72;;;11.52;74.43
28008;BME280;15333;50.010;20.020;2023-04-25T11:37:32;97792.69;;;11.72;70.58
28008;BME280;15333;50.010;20.020;2023-04-25T11:40:37;97791.38;;;10.93;73.05
28008;BME280;15333;50.010;20.020;2023-04-25T11:43:38;97790.13;;;10.78;72.19
28008;BME280;15333;50.010;20.020;2023-04-25T11:46:39;97795.03;;;10.34;73.34
28008;BME280;15333;50.010;20.020;2023-04-25T11:49:40;97791.06;;;10.29;75.12
28008;BME280;15333;50.010;20.020;2023-04-25T11:52:43;97791.78;;;10.40;76.11
28008;BME280;15333;50.010;20.020;2023-04-25T11:55:45;97791.22;;;10.46;75.12
28008;BME280;15333;50.010;20.020;2023-04-25T11:58:58;97790.13;;;10.58;76.64
28008;BME280;15333;50.010;20.020;2023-04-25T12:01:59;97794.72;;;10.95;74.32
28008;BME280;15333;50.010;20.020;2023-04-25T12:05:02;97792.34;;;10.82;74.10
28008;BME280;15333;50.010;20.020;2023-04-25T12:08:11;97789.25;;;10.96;74.20
28008;BME280;15333;50.010;20.020;2023-04-25T12:11:21;97780.38;;;10.77;73.71
28008;BME280;15333;50.010;20.020;2023-04-25T12:14:30;97786.44;;;10.59;76.26
28008;BME280;15333;50.010;20.020;2023-04-25T12:17:30;97791.25;;;10.66;78.20
28008;BME280;15333;50.010;20.020;2023-04-25T12:20:31;97788.94;;;10.32;77.88
28008;BME280;15333;50.010;20.020;2023-04-25T12:23:32;97791.19;;;10.17;79.16
28008;BME280;15333;50.010;20.020;2023-04-25T12:26:59;97787.25;;;10.31;81.46
28008;BME280;15333;50.010;20.020;2023-04-25T12:30:00;97795.16;;;10.42;79.96
28008;BME280;15333;50.010;20.020;2023-04-25T12:33:02;97791.75;;;10.31;83.44
28008;BME280;15333;50.010;20.020;2023-04-25T12:36:04;97789.53;;;10.45;82.90
28008;BME280;15333;50.010;20.020;2023-04-25T12:39:17;97806.03;;;10.01;84.58
28008;BME280;15333;50.010;20.020;2023-04-25T12:42:19;97797.50;;;9.76;82.02
28008;BME280;15333;50.010;20.020;2023-04-25T12:45:21;97802.66;;;9.38;81.88
28008;BME280;15333;50.010;20.020;2023-04-25T12:48:22;97802.19;;;9.23;85.19
28008;BME280;15333;50.010;20.020;2023-04-25T12:51:23;97806.50;;;9.15;88.56
28008;BME280;15333;50.010;20.020;2023-04-25T12:54:25;97806.19;;;9.08;85.47
28008;BME280;15333;50.010;20.020;2023-04-25T12:57:26;97795.53;;;8.97;84.05
28008;BME280;15333;50.010;20.020;2023-04-25T13:00:27;97806.88;;;8.89;83.93
28008;BME280;15333;50.010;20.020;2023-04-25T13:03:28;97804.41;;;8.77;87.39
28008;BME280;15333;50.010;20.020;2023-04-25T13:06:29;97807.47;;;8.72;88.48
28008;BME280;15333;50.010;20.020;2023-04-25T13:09:33;97800.31;;;8.73;92.21
28008;BME280;15333;50.010;20.020;2023-04-25T13:12:33;97803.75;;;8.84;93.63
28008;BME280;15333;50.010;20.020;2023-04-25T13:15:34;97802.84;;;9.16;97.14
28008;BME280;15333;50.010;20.020;2023-04-25T13:18:35;97811.56;;;9.18;92.16
28008;BME280;15333;50.010;20.020;2023-04-25T13:21:36;97808.88;;;9.18;89.10
28008;BME280;15333;50.010;20.020;2023-04-25T13:24:37;97807.28;;;9.06;87.31
28008;BME280;15333;50.010;20.020;2023-04-25T13:27:38;97802.66;;;9.08;89.48
28008;BME280;15333;50.010;20.020;2023-04-25T13:30:41;97798.84;;;9.10;84.05
28008;BME280;15333;50.010;20.020;2023-04-25T13:33:43;97797.75;;;9.13;84.90
28008;BME280;15333;50.010;20.020;2023-04-25T13:36:44;97809.06;;;9.26;86.19
28008;BME280;15333;50.010;20.020;2023-04-25T13:39:48;97799.03;;;9.39;87.10
28008;BME280;15333;50.010;20.020;2023-04-25T13:42:49;97806.88;;;9.61;88.58
28008;BME280;15333;50.010;20.020;2023-04-25T13:45:51;97814.88;;;9.61;89.19
28008;BME280;15333;50.010;20.020;2023-04-25T13:48:52;97810.69;;;9.59;89.89
28008;BME280;15333;50.010;20.020;2023-04-25T13:51:53;97809.81;;;9.58;89.77
28008;BME280;15333;50.010;20.020;2023-04-25T13:54:54;97808.53;;;9.93;86.77
28008;BME280;15333;50.010;20.020;2023-04-25T13:57:55;97800.16;;;10.07;87.23
28008;BME280;15333;50.010;20.020;2023-04-25T14:00:56;97803.31;;;10.22;89.43
28008;BME280;15333;50.010;20.020;2023-04-25T14:03:57;97798.84;;;10.60;85.56
28008;BME280;15333;50.010;20.020;2023-04-25T14:06:58;97802.78;;;10.85;81.64
28008;BME280;15333;50.010;20.020;2023-04-25T14:09:59;97802.50;;;10.79;81.96
28008;BME280;15333;50.010;20.020;2023-04-25T14:13:00;97802.50;;;10.98;84.30
28008;BME280;15333;50.010;20.020;2023-04-25T14:16:01;97810.94;;;10.74;84.43
28008;BME280;15333;50.010;20.020;2023-04-25T14:19:02;97809.53;;;10.41;88.53
28008;BME280;15333;50.010;20.020;2023-04-25T14:22:03;97805.03;;;10.99;84.18
28008;BME280;15333;50.010;20.020;2023-04-25T14:25:06;97808.13;;;10.47;88.75
28008;BME280;15333;50.010;20.020;2023-04-25T14:28:09;97809.25;;;10.83;88.49
28008;BME280;15333;50.010;20.020;2023-04-25T14:31:10;97807.84;;;10.40;88.23
28008;BME280;15333;50.010;20.020;2023-04-25T14:34:11;97813.94;;;10.12;89.71
28008;BME280;15333;50.010;20.020;2023-04-25T14:37:11;97817.41;;;10.33;90.91
28008;BME280;15333;50.010;20.020;2023-04-25T14:40:13;97820.50;;;10.48;89.59
28008;BME280;15333;50.010;20.020;2023-04-25T14:43:15;97817.94;;;10.27;86.84
28008;BME280;15333;50.010;20.020;2023-04-25T14:46:16;97817.59;;;10.11;89.09
28008;BME280;15333;50.010;20.020;2023-04-25T14:49:17;97818.38;;;9.92;89.84
28008;BME280;15333;50.010;20.020;2023-04-25T14:52:18;97814.56;;;9.85;88.78
28008;BME280;15333;50.010;20.020;2023-04-25T14:55:19;97809.91;;;9.77;87.40
28008;BME280;15333;50.010;20.020;2023-04-25T14:58:20;97816.03;;;9.68;85.75
28008;BME280;15333;50.010;20.020;2023-04-25T15:01:21;97811.28;;;9.72;83.26
28008;BME280;15333;50.010;20.020;2023-04-25T15:04:23;97813.78;;;9.73;79.55
28008;BME280;15333;50.010;20.020;2023-04-25T15:07:23;97802.69;;;9.68;76.09
28008;BME280;15333;50.010;20.020;2023-04-25T15:10:25;97817.00;;;9.67;74.52
28008;BME280;15333;50.010;20.020;2023-04-25T15:13:26;97818.63;;;9.79;71.47
28008;BME280;15333;50.010;20.020;2023-04-25T15:16:27;97821.44;;;9.88;67.87
28008;BME280;15333;50.010;20.020;2023-04-25T15:19:28;97823.13;;;9.79;65.78
28008;BME280;15333;50.010;20.020;2023-04-25T15:22:29;97815.91;;;9.70;66.97
28008;BME280;15333;50.010;20.020;2023-04-25T15:25:30;97818.00;;;9.66;67.03
28008;BME280;15333;50.010;20.020;2023-04-25T15:28:31;97817.72;;;9.69;67.82
28008;BME280;15333;50.010;20.020;2023-04-25T15:31:34;97817.50;;;9.82;66.81
28008;BME280;15333;50.010;20.020;2023-04-25T15:34:35;97818.63;;;9.79;67.60
28008;BME280;15333;50.010;20.020;2023-04-25T15:37:36;97815.97;;;9.79;67.42
28008;BME280;15333;50.010;20.020;2023-04-25T15:40:37;97811.31;;;9.81;67.60
28008;BME280;15333;50.010;20.020;2023-04-25T15:43:38;97827.38;;;9.91;68.04
28008;BME280;15333;50.010;20.020;2023-04-25T15:46:40;97814.59;;;9.95;67.62
28008;BME280;15333;50.010;20.020;2023-04-25T15:49:40;97820.94;;;10.03;68.14
28008;BME280;15333;50.010;20.020;2023-04-25T15:52:42;97804.09;;;10.12;67.69
28008;BME280;15333;50.010;20.020;2023-04-25T15:55:43;97815.13;;;10.19;67.43
28008;BME280;15333;50.010;20.020;2023-04-25T15:58:44;97805.00;;;10.32;68.13
28008;BME280;15333;50.010;20.020;2023-04-25T16:01:45;97800.53;;;10.42;68.51
28008;BME280;15333;50.010;20.020;2023-04-25T16:04:46;97804.88;;;10.43;68.86
28008;BME280;15333;50.010;20.020;2023-04-25T16:07:47;97805.56;;;10.45;67.69
28008;BME280;15333;50.010;20.020;2023-04-25T16:10:48;97808.69;;;10.50;68.28
28008;BME280;15333;50.010;20.020;2023-04-25T16:13:49;97807.00;;;10.59;65.66
28008;BME280;15333;50.010;20.020;2023-04-25T16:16:50;97805.31;;;10.48;65.95
28008;BME280;15333;50.010;20.020;2023-04-25T16:19:51;97801.94;;;10.56;67.05
28008;BME280;15333;50.010;20.020;2023-04-25T16:22:52;97809.69;;;10.69;67.02
28008;BME280;15333;50.010;20.020;2023-04-25T16:25:53;97801.94;;;10.66;66.12
28008;BME280;15333;50.010;20.020;2023-04-25T16:28:54;97807.16;;;10.77;66.03
28008;BME280;15333;50.010;20.020;2023-04-25T16:31:55;97807.28;;;10.85;64.89
28008;BME280;15333;50.010;20.020;2023-04-25T16:34:56;97826.16;;;10.54;65.90
28008;BME280;15333;50.010;20.020;2023-04-25T16:37:57;97825.47;;;10.72;65.51
28008;BME280;15333;50.010;20.020;2023-04-25T16:40:58;97820.81;;;10.74;65.54
28008;BME280;15333;50.010;20.020;2023-04-25T16:43:59;97823.22;;;10.57;65.66
28008;BME280;15333;50.010;20.020;2023-04-25T16:47:00;97822.91;;;10.60;66.06